Time;durP1;ratioP1;P1;durP2;ratioP2;P2;SDS_P1;SDS_P2;PMS_P1;PMS_P2;Temp;Humidity;BMP_temperature;BMP_pressure;BME280_temperature;BME280_humidity;BME280_pressure;Samples;Min_cycle;Max_cycle;Signal;HPM_P1;HPM_P2
2024/04/14 00:01:36;;;;;;;22.70;19.80;;;;;;;11.95;100.00;99311.86;109447;1253;59759;-73
2024/04/14 00:04:02;;;;;;;22.60;20.00;;;;;;;11.89;100.00;99315.10;109433;1252;59902;-73
2024/04/14 00:06:30;;;;;;;22.90;20.30;;;;;;;11.84;100.00;99309.89;109466;1253;59867;-73
2024/04/14 00:08:56;;;;;;;23.00;20.10;;;;;;;11.81;100.00;99305.63;109505;1252;59838;-73
2024/04/14 00:11:22;;;;;;;23.90;19.70;;;;;;;11.80;100.00;99303.27;109489;1252;60013;-74
2024/04/14 00:13:49;;;;;;;23.20;20.90;;;;;;;11.77;100.00;99296.63;109530;1253;60135;-74
2024/04/14 00:16:16;;;;;;;25.30;21.00;;;;;;;11.75;100.00;99292.14;109491;1252;62484;-74
2024/04/14 00:18:42;;;;;;;23.70;20.70;;;;;;;11.73;100.00;99291.77;109473;1253;60054;-74
2024/04/14 00:21:10;;;;;;;23.00;20.50;;;;;;;11.69;100.00;99285.45;109507;1252;59696;-74
2024/04/14 00:23:36;;;;;;;22.40;20.10;;;;;;;11.64;100.00;99284.88;109474;1253;66527;-73
2024/04/14 00:26:03;;;;;;;21.70;19.70;;;;;;;11.61;100.00;99281.89;109497;1252;59787;-73
2024/04/14 00:28:29;;;;;;;23.80;20.20;;;;;;;11.57;100.00;99277.14;109448;1252;64133;-74
2024/04/14 00:30:56;;;;;;;23.00;20.50;;;;;;;11.54;100.00;99269.55;109501;1252;59799;-74
2024/04/14 00:33:22;;;;;;;22.80;20.50;;;;;;;11.50;100.00;99265.15;109479;1252;59859;-74
2024/04/14 00:35:48;;;;;;;23.50;21.00;;;;;;;11.47;100.00;99260.40;109492;1252;59853;-74
2024/04/14 00:38:15;;;;;;;23.50;21.00;;;;;;;11.43;100.00;99256.36;109329;1252;60324;-73
2024/04/14 00:40:41;;;;;;;21.80;19.60;;;;;;;11.38;100.00;99251.02;109470;1254;60068;-74
2024/04/14 00:43:07;;;;;;;23.40;21.00;;;;;;;11.34;100.00;99242.41;109490;1252;60071;-74
2024/04/14 00:45:34;;;;;;;24.40;21.80;;;;;;;11.30;100.00;99233.94;109536;1253;59852;-73
2024/04/14 00:48:00;;;;;;;25.10;21.70;;;;;;;11.27;100.00;99232.38;109477;1253;59808;-74
2024/04/14 00:50:26;;;;;;;25.60;22.90;;;;;;;11.23;100.00;99230.13;109506;1252;60151;-74
2024/04/14 00:52:53;;;;;;;27.20;24.40;;;;;;;11.18;100.00;99231.84;109300;1253;60299;-74
2024/04/14 00:55:20;;;;;;;26.90;24.20;;;;;;;11.13;100.00;99228.47;109474;1253;59812;-73
2024/04/14 00:57:47;;;;;;;27.20;24.40;;;;;;;11.11;100.00;99220.62;109422;1252;60057;-73
2024/04/14 01:00:14;;;;;;;27.20;24.40;;;;;;;11.12;100.00;99212.38;109340;1253;65283;-72
2024/04/14 01:02:41;;;;;;;26.70;23.90;;;;;;;11.13;100.00;99217.08;109532;1252;59917;-73
2024/04/14 01:05:08;;;;;;;27.30;24.40;;;;;;;11.14;100.00;99217.04;109253;1253;63648;-72
2024/04/14 01:07:35;;;;;;;27.30;24.50;;;;;;;11.14;100.00;99213.14;109449;1253;59802;-73
2024/04/14 01:10:02;;;;;;;25.80;22.80;;;;;;;11.15;100.00;99215.38;109480;1252;59757;-73
2024/04/14 01:12:29;;;;;;;27.00;23.60;;;;;;;11.16;100.00;99219.23;109492;1253;65682;-74
2024/04/14 01:14:55;;;;;;;27.10;24.20;;;;;;;11.17;100.00;99213.64;109464;1253;59766;-73
2024/04/14 01:17:21;;;;;;;25.50;22.90;;;;;;;11.18;100.00;99212.66;109492;1253;60109;-74
2024/04/14 01:19:48;;;;;;;25.80;23.10;;;;;;;11.19;100.00;99210.15;109482;1252;60152;-74
2024/04/14 01:22:14;;;;;;;25.30;22.80;;;;;;;11.19;100.00;99210.65;109491;1253;59801;-74
2024/04/14 01:24:40;;;;;;;25.70;23.10;;;;;;;11.17;100.00;99205.06;109473;1252;60088;-74
2024/04/14 01:27:06;;;;;;;25.90;23.30;;;;;;;11.16;100.00;99204.30;109473;1253;59882;-73
2024/04/14 01:29:33;;;;;;;25.30;22.40;;;;;;;11.15;100.00;99208.27;109444;1253;59855;-74
2024/04/14 01:31:59;;;;;;;25.90;23.50;;;;;;;11.13;100.00;99205.48;109457;1253;59756;-73
2024/04/14 01:34:26;;;;;;;26.00;23.40;;;;;;;11.12;100.00;99200.27;109534;1253;59766;-72
2024/04/14 01:36:53;;;;;;;25.90;23.20;;;;;;;11.10;100.00;99198.77;109481;1252;60022;-73
2024/04/14 01:39:19;;;;;;;25.90;23.30;;;;;;;11.09;100.00;99197.26;109451;1253;59877;-74
2024/04/14 01:41:46;;;;;;;24.60;22.10;;;;;;;11.07;100.00;99198.15;109454;1253;60180;-74
2024/04/14 01:44:14;;;;;;;24.70;22.10;;;;;;;11.04;100.00;99199.89;109462;1253;59757;-73
2024/04/14 01:46:40;;;;;;;25.00;22.60;;;;;;;11.02;100.00;99197.04;109506;1252;59714;-74
2024/04/14 01:49:06;;;;;;;25.30;21.90;;;;;;;10.98;100.00;99202.05;109527;1253;59815;-73
2024/04/14 01:51:32;;;;;;;28.50;25.50;;;;;;;10.96;100.00;99200.27;109493;1253;59752;-74
2024/04/14 01:53:59;;;;;;;30.20;24.30;;;;;;;10.96;100.00;99197.77;109489;1252;60818;-73
2024/04/14 01:56:25;;;;;;;25.70;23.00;;;;;;;10.96;100.00;99196.15;109495;1252;59822;-73
2024/04/14 01:58:51;;;;;;;26.70;23.90;;;;;;;10.96;100.00;99199.91;109522;1253;60011;-73
2024/04/14 02:01:18;;;;;;;26.40;23.70;;;;;;;10.93;100.00;99196.69;109496;1253;59751;-73
2024/04/14 02:03:44;;;;;;;27.50;24.80;;;;;;;10.92;100.00;99193.24;109485;1252;60292;-73
2024/04/14 02:06:10;;;;;;;25.00;21.90;;;;;;;10.89;100.00;99191.66;109495;1252;59895;-73
2024/04/14 02:08:37;;;;;;;25.40;22.90;;;;;;;10.86;100.00;99188.50;109321;1252;59829;-74
2024/04/14 02:11:03;;;;;;;24.20;22.00;;;;;;;10.81;100.00;99183.08;109504;1252;59802;-73
2024/04/14 02:13:30;;;;;;;26.30;22.40;;;;;;;10.78;100.00;99179.89;109518;1252;60077;-74
2024/04/14 02:15:56;;;;;;;23.60;21.30;;;;;;;10.75;100.00;99170.84;109484;1253;59889;-73
2024/04/14 02:18:22;;;;;;;23.00;20.70;;;;;;;10.73;100.00;99171.88;109504;1252;60137;-73
2024/04/14 02:20:49;;;;;;;23.60;21.20;;;;;;;10.70;100.00;99168.85;109217;1253;59804;-73
2024/04/14 02:23:15;;;;;;;23.50;21.00;;;;;;;10.68;100.00;99166.73;109533;1252;60313;-74
2024/04/14 02:25:53;;;;;;;21.80;19.70;;;;;;;10.65;100.00;99165.60;109461;1253;59783;-73
2024/04/14 02:28:19;;;;;;;21.60;19.30;;;;;;;10.62;100.00;99162.65;109464;1253;60277;-73
2024/04/14 02:30:46;;;;;;;23.50;21.30;;;;;;;10.58;100.00;99155.79;109499;1253;60134;-74
2024/04/14 02:33:12;;;;;;;24.30;21.80;;;;;;;10.54;100.00;99149.30;109506;1253;60047;-74
2024/04/14 02:35:40;;;;;;;24.70;22.40;;;;;;;10.50;100.00;99147.21;109509;1252;59994;-73
2024/04/14 02:38:06;;;;;;;23.90;21.00;;;;;;;10.49;100.00;99144.65;109446;1254;65575;-73
2024/04/14 02:40:32;;;;;;;21.90;20.00;;;;;;;10.47;100.00;99144.05;109493;1256;59798;-76
2024/04/14 02:42:59;;;;;;;21.40;19.40;;;;;;;10.45;100.00;99140.81;109486;1252;60015;-74
2024/04/14 02:45:25;;;;;;;24.90;22.40;;;;;;;10.42;100.00;99140.98;109492;1252;59744;-74
2024/04/14 02:47:51;;;;;;;22.80;20.60;;;;;;;10.39;100.00;99137.28;109169;1253;59968;-74
2024/04/14 02:50:18;;;;;;;23.90;21.50;;;;;;;10.38;100.00;99136.45;109491;1253;59872;-72
2024/04/14 02:52:44;;;;;;;24.30;21.90;;;;;;;10.38;100.00;99140.22;109476;1253;59884;-74
2024/04/14 02:55:10;;;;;;;24.80;22.30;;;;;;;10.37;100.00;99138.14;109479;1253;59753;-74
2024/04/14 02:57:37;;;;;;;25.10;22.40;;;;;;;10.34;100.00;99135.98;109494;1252;59757;-73
2024/04/14 03:00:03;;;;;;;24.60;22.20;;;;;;;10.34;100.00;99134.77;109475;1252;60172;-74
2024/04/14 03:02:30;;;;;;;25.00;22.60;;;;;;;10.34;100.00;99137.41;109513;1253;60052;-72
2024/04/14 03:04:57;;;;;;;25.00;22.50;;;;;;;10.34;100.00;99131.55;109556;1253;59943;-73
2024/04/14 03:07:23;;;;;;;25.30;22.30;;;;;;;10.36;100.00;99130.02;109511;1253;59901;-73
2024/04/14 03:09:52;;;;;;;27.30;24.30;;;;;;;10.40;100.00;99129.94;109522;1253;60128;-75
2024/04/14 03:12:18;;;;;;;25.50;22.90;;;;;;;10.41;100.00;99130.56;109494;1252;59897;-72
2024/04/14 03:14:45;;;;;;;25.50;22.80;;;;;;;10.42;100.00;99129.08;109478;1252;65671;-74
2024/04/14 03:17:11;;;;;;;25.40;23.00;;;;;;;10.41;100.00;99123.44;109486;1253;60465;-74
2024/04/14 03:19:38;;;;;;;25.40;22.70;;;;;;;10.40;100.00;99122.13;109311;1253;59994;-73
2024/04/14 03:22:05;;;;;;;25.70;22.90;;;;;;;10.36;100.00;99115.44;109197;1254;59986;-74
2024/04/14 03:24:32;;;;;;;26.60;23.90;;;;;;;10.31;100.00;99114.16;109526;1253;59738;-73
2024/04/14 03:26:58;;;;;;;25.50;22.90;;;;;;;10.28;100.00;99110.11;109511;1252;66511;-72
2024/04/14 03:29:25;;;;;;;24.40;22.00;;;;;;;10.25;100.00;99108.50;109506;1253;59774;-73
2024/04/14 03:31:51;;;;;;;27.30;24.50;;;;;;;10.23;100.00;99113.10;109469;1253;59963;-73
2024/04/14 03:34:17;;;;;;;25.50;22.90;;;;;;;10.19;100.00;99115.29;109451;1252;59828;-73
2024/04/14 03:36:44;;;;;;;26.40;23.50;;;;;;;10.14;100.00;99115.97;109502;1253;60153;-74
2024/04/14 03:39:10;;;;;;;24.80;22.30;;;;;;;10.10;100.00;99110.15;109550;1253;60063;-74
2024/04/14 03:41:36;;;;;;;24.60;22.10;;;;;;;10.08;100.00;99107.43;109491;1253;59888;-74
2024/04/14 03:44:03;;;;;;;25.50;23.00;;;;;;;10.06;100.00;99106.82;109527;1252;59897;-73
2024/04/14 03:46:29;;;;;;;25.90;23.20;;;;;;;10.04;100.00;99109.45;109486;1253;60019;-73
2024/04/14 03:48:55;;;;;;;27.10;24.20;;;;;;;10.01;100.00;99107.17;109491;1253;59834;-74
2024/04/14 03:51:22;;;;;;;25.90;23.30;;;;;;;9.99;100.00;99101.08;109494;1252;60065;-73
2024/04/14 03:53:48;;;;;;;25.50;22.90;;;;;;;9.98;100.00;99100.41;109477;1252;59862;-73
2024/04/14 03:56:14;;;;;;;27.00;24.10;;;;;;;9.98;100.00;99093.66;109519;1253;59769;-73
2024/04/14 03:58:41;;;;;;;24.50;22.00;;;;;;;9.98;100.00;99088.91;109354;1253;59933;-73
2024/04/14 04:01:07;;;;;;;24.40;22.00;;;;;;;9.97;100.00;99085.58;109513;1252;60111;-74
2024/04/14 04:03:33;;;;;;;26.60;24.00;;;;;;;9.96;100.00;99080.49;109554;1253;59789;-73
2024/04/14 04:06:01;;;;;;;28.70;25.80;;;;;;;10.00;100.00;99082.39;109476;1253;59792;-74
2024/04/14 04:08:28;;;;;;;25.40;22.90;;;;;;;10.04;100.00;99077.88;109446;1253;60041;-73
2024/04/14 04:11:03;;;;;;;26.50;23.30;;;;;;;10.06;100.00;99070.48;109480;1252;59872;-73
2024/04/14 04:13:33;;;;;;;25.00;22.50;;;;;;;10.07;100.00;99065.93;109494;1253;59709;-74
2024/04/14 04:16:02;;;;;;;25.20;22.60;;;;;;;10.09;100.00;99064.61;109487;1252;66937;-73
2024/04/14 04:18:28;;;;;;;26.00;23.30;;;;;;;10.10;100.00;99064.17;109468;1253;61395;-74
2024/04/14 04:20:56;;;;;;;25.50;23.00;;;;;;;10.12;100.00;99066.89;109465;1253;62713;-74
2024/04/14 04:23:23;;;;;;;25.40;22.80;;;;;;;10.10;100.00;99063.41;109487;1253;59795;-73
2024/04/14 04:25:50;;;;;;;31.20;25.50;;;;;;;10.16;100.00;99062.89;109461;1253;60038;-74
2024/04/14 04:28:16;;;;;;;29.40;25.90;;;;;;;10.24;100.00;99057.59;109510;1252;65615;-74
2024/04/14 04:30:43;;;;;;;27.40;24.70;;;;;;;10.32;100.00;99051.05;109382;1254;59819;-73
2024/04/14 04:33:09;;;;;;;26.60;23.90;;;;;;;10.41;100.00;99043.02;109485;1253;59849;-73
2024/04/14 04:35:35;;;;;;;27.50;24.80;;;;;;;10.50;100.00;99036.77;109164;1253;59844;-73
2024/04/14 04:38:02;;;;;;;30.50;27.40;;;;;;;10.59;100.00;99031.05;109477;1252;60083;-73
2024/04/14 04:40:28;;;;;;;29.20;26.30;;;;;;;10.70;100.00;99030.82;109485;1254;59868;-74
2024/04/14 04:42:55;;;;;;;28.20;25.40;;;;;;;10.77;100.00;99035.31;109535;1252;59886;-74
2024/04/14 04:45:21;;;;;;;30.40;27.60;;;;;;;10.77;100.00;99039.41;109493;1252;59820;-74
2024/04/14 04:47:47;;;;;;;29.40;26.50;;;;;;;10.82;100.00;99034.27;109520;1253;59809;-74
2024/04/14 04:50:14;;;;;;;28.30;25.50;;;;;;;10.94;100.00;99033.80;109527;1253;59905;-75
2024/04/14 04:52:40;;;;;;;30.00;26.90;;;;;;;11.06;100.00;99038.73;109493;1256;59821;-73
2024/04/14 04:55:06;;;;;;;30.50;27.30;;;;;;;11.16;100.00;99041.20;109470;1254;59750;-74
2024/04/14 04:57:33;;;;;;;31.50;28.40;;;;;;;11.28;100.00;99037.67;109264;1254;59870;-74
2024/04/14 04:59:59;;;;;;;30.10;27.00;;;;;;;11.42;100.00;99032.48;109470;1251;59821;-74
2024/04/14 05:02:25;;;;;;;29.10;26.30;;;;;;;11.60;100.00;99030.89;109528;1253;60069;-73
2024/04/14 05:04:52;;;;;;;28.10;25.40;;;;;;;11.76;100.00;99026.30;109505;1253;60184;-73
2024/04/14 05:07:18;;;;;;;28.40;25.60;;;;;;;11.88;100.00;99022.27;109469;1252;59919;-73
2024/04/14 05:09:45;;;;;;;29.90;26.90;;;;;;;12.03;100.00;99023.48;109451;1252;59911;-73
2024/04/14 05:12:11;;;;;;;27.70;25.10;;;;;;;12.19;100.00;99019.85;109466;1254;59845;-74
2024/04/14 05:14:38;;;;;;;26.80;24.20;;;;;;;12.33;100.00;99014.41;109501;1253;59891;-73
2024/04/14 05:17:04;;;;;;;27.10;24.40;;;;;;;12.45;100.00;99015.27;109471;1253;59821;-73
2024/04/14 05:19:30;;;;;;;26.80;24.10;;;;;;;12.58;100.00;99017.23;109468;1253;59834;-73
2024/04/14 05:21:57;;;;;;;27.60;24.90;;;;;;;12.74;100.00;99013.47;109424;1253;60540;-74
2024/04/14 05:24:23;;;;;;;25.80;23.40;;;;;;;12.87;100.00;99011.38;109507;1253;59788;-74
2024/04/14 05:26:49;;;;;;;24.70;22.30;;;;;;;13.00;100.00;99005.86;109566;1253;59998;-74
2024/04/14 05:29:16;;;;;;;25.00;22.70;;;;;;;13.13;100.00;99006.92;109306;1253;59877;-72
2024/04/14 05:31:42;;;;;;;24.70;22.30;;;;;;;13.26;100.00;99007.56;109456;1253;59909;-73
2024/04/14 05:34:08;;;;;;;23.90;21.70;;;;;;;13.37;100.00;99007.73;109518;1252;59765;-75
2024/04/14 05:36:35;;;;;;;25.10;22.50;;;;;;;13.52;100.00;99004.07;109416;1253;59856;-75
2024/04/14 05:39:01;;;;;;;25.80;23.30;;;;;;;13.69;100.00;99000.04;109476;1252;60640;-73
2024/04/14 05:41:28;;;;;;;26.40;23.70;;;;;;;13.90;100.00;99000.36;109494;1253;59981;-73
2024/04/14 05:43:54;;;;;;;24.90;22.40;;;;;;;14.14;100.00;98996.59;109474;1254;59842;-74
2024/04/14 05:46:21;;;;;;;25.00;22.40;;;;;;;14.46;100.00;98993.50;109456;1254;59848;-73
2024/04/14 05:48:48;;;;;;;24.10;21.80;;;;;;;14.82;100.00;98985.63;109338;1253;59819;-72
2024/04/14 05:51:14;;;;;;;24.10;21.80;;;;;;;15.11;100.00;98981.39;109533;1253;59868;-74
2024/04/14 05:53:41;;;;;;;24.50;22.10;;;;;;;15.32;100.00;98984.73;109441;1254;60069;-74
2024/04/14 05:56:07;;;;;;;23.90;21.40;;;;;;;15.52;100.00;98984.13;109325;1254;59923;-73
2024/04/14 05:58:33;;;;;;;25.50;23.10;;;;;;;15.71;100.00;98983.02;109511;1253;59859;-73
2024/04/14 06:01:05;;;;;;;23.20;21.00;;;;;;;15.82;100.00;98986.17;109527;1253;60000;-72
2024/04/14 06:03:31;;;;;;;23.40;21.00;;;;;;;16.04;100.00;98984.95;109505;1253;59749;-72
2024/04/14 06:05:58;;;;;;;23.30;20.90;;;;;;;16.28;100.00;98978.85;109527;1253;66888;-73
2024/04/14 06:08:24;;;;;;;22.00;19.90;;;;;;;16.46;100.00;98979.15;109506;1252;60019;-74
2024/04/14 06:10:51;;;;;;;21.80;19.70;;;;;;;16.62;100.00;98979.44;109488;1253;59803;-73
2024/04/14 06:13:17;;;;;;;22.00;19.70;;;;;;;16.71;100.00;98986.16;109486;1252;59813;-74
2024/04/14 06:15:44;;;;;;;21.70;19.60;;;;;;;16.88;100.00;98988.86;109508;1252;60309;-74
2024/04/14 06:18:11;;;;;;;20.40;18.50;;;;;;;17.06;100.00;98988.89;109110;1253;66728;-73
2024/04/14 06:20:40;;;;;;;19.60;17.70;;;;;;;17.20;100.00;98982.48;109486;1254;59940;-73
2024/04/14 06:23:07;;;;;;;18.60;16.80;;;;;;;17.42;100.00;98983.46;109452;1252;73930;-74
2024/04/14 06:25:33;;;;;;;18.80;16.50;;;;;;;17.64;100.00;98980.43;109517;1252;59794;-74
2024/04/14 06:27:59;;;;;;;15.60;14.10;;;;;;;17.89;100.00;98983.77;109498;1253;59813;-74
2024/04/14 06:30:26;;;;;;;13.50;12.30;;;;;;;18.03;100.00;98984.94;109494;1252;59872;-73
2024/04/14 06:32:52;;;;;;;13.40;12.00;;;;;;;18.21;100.00;98977.14;109498;1252;60521;-74
2024/04/14 06:35:19;;;;;;;11.80;10.30;;;;;;;18.44;100.00;98975.89;109488;1254;59852;-73
2024/04/14 06:37:45;;;;;;;9.20;8.30;;;;;;;18.71;100.00;98976.77;109475;1253;59726;-73
2024/04/14 06:40:13;;;;;;;9.00;7.80;;;;;;;18.98;100.00;98979.63;109486;1254;60029;-73
2024/04/14 06:42:39;;;;;;;7.00;5.70;;;;;;;19.29;100.00;98976.67;109481;1254;66896;-73
2024/04/14 06:45:06;;;;;;;7.20;4.40;;;;;;;19.45;100.00;98977.09;109488;1253;60091;-74
2024/04/14 06:47:32;;;;;;;5.50;4.50;;;;;;;19.58;100.00;98969.34;109461;1253;64171;-73
2024/04/14 06:49:59;;;;;;;6.50;3.80;;;;;;;19.73;100.00;98970.09;109461;1253;59785;-73
2024/04/14 06:52:25;;;;;;;4.70;3.50;;;;;;;19.87;100.00;98967.83;109494;1253;59835;-74
2024/04/14 06:54:51;;;;;;;3.80;2.70;;;;;;;19.99;100.00;98966.45;109474;1253;59749;-74
2024/04/14 06:57:18;;;;;;;3.00;2.80;;;;;;;20.09;100.00;98966.05;109483;1252;59843;-73
2024/04/14 06:59:44;;;;;;;2.70;2.50;;;;;;;20.15;100.00;98967.66;109482;1254;59824;-73
2024/04/14 07:02:10;;;;;;;4.10;3.00;;;;;;;20.16;100.00;98967.49;109471;1252;60059;-74
2024/04/14 07:04:37;;;;;;;3.80;2.70;;;;;;;20.19;100.00;98972.55;109524;1253;60553;-73
2024/04/14 07:07:03;;;;;;;3.30;2.40;;;;;;;20.29;100.00;98964.78;109501;1253;60036;-74
2024/04/14 07:09:29;;;;;;;5.20;2.60;;;;;;;20.36;100.00;98962.44;109494;1252;59844;-74
2024/04/14 07:11:56;;;;;;;3.20;2.50;;;;;;;20.45;100.00;98966.95;109320;1253;60002;-73
2024/04/14 07:14:23;;;;;;;3.40;2.20;;;;;;;20.53;99.79;98970.36;109498;1253;59704;-73
2024/04/14 07:16:49;;;;;;;3.80;3.00;;;;;;;20.63;99.79;98970.73;109463;1252;59770;-73
2024/04/14 07:19:15;;;;;;;6.20;2.50;;;;;;;20.74;98.12;98970.48;109516;1253;59885;-73
2024/04/14 07:21:41;;;;;;;2.40;2.00;;;;;;;20.78;98.15;98973.94;109475;1252;59954;-74
2024/04/14 07:24:08;;;;;;;2.60;2.40;;;;;;;20.85;97.93;98979.42;109488;1253;59844;-74
2024/04/14 07:26:34;;;;;;;4.70;2.80;;;;;;;20.85;95.06;98974.36;109524;1254;59879;-73
2024/04/14 07:29:01;;;;;;;3.00;2.00;;;;;;;20.82;93.62;98970.06;109509;1253;60056;-74
2024/04/14 07:31:27;;;;;;;2.20;1.80;;;;;;;20.83;92.12;98969.65;109501;1254;59762;-73
2024/04/14 07:34:01;;;;;;;5.50;2.20;;;;;;;20.86;92.92;98971.73;109479;1253;59872;-74
2024/04/14 07:36:28;;;;;;;4.00;2.60;;;;;;;20.89;91.42;98972.84;109508;1254;63883;-73
2024/04/14 07:38:54;;;;;;;3.40;2.10;;;;;;;20.90;91.60;98968.67;109485;1252;59761;-74
2024/04/14 07:41:21;;;;;;;4.60;2.40;;;;;;;20.91;90.77;98964.92;109512;1253;59823;-73
2024/04/14 07:43:48;;;;;;;3.20;2.10;;;;;;;20.91;87.96;98962.45;109501;1252;65308;-73
2024/04/14 07:46:15;;;;;;;3.00;2.60;;;;;;;20.90;86.85;98965.48;109521;1253;60233;-73
2024/04/14 07:48:41;;;;;;;2.80;2.30;;;;;;;20.93;86.18;98963.52;109457;1253;64844;-74
2024/04/14 07:51:09;;;;;;;3.20;2.20;;;;;;;21.03;86.35;98961.30;109502;1253;59824;-73
2024/04/14 07:53:35;;;;;;;4.60;2.60;;;;;;;21.15;84.28;98965.75;109457;1254;59819;-73
2024/04/14 07:56:02;;;;;;;3.30;2.30;;;;;;;21.28;84.18;98965.02;109502;1253;59809;-72
2024/04/14 07:58:28;;;;;;;4.00;2.40;;;;;;;21.43;83.18;98958.52;109511;1253;59752;-73
2024/04/14 08:00:54;;;;;;;4.00;2.90;;;;;;;21.59;82.93;98958.71;109443;1253;59905;-73
2024/04/14 08:03:21;;;;;;;4.60;2.60;;;;;;;21.75;80.05;98957.75;109532;1254;60200;-74
2024/04/14 08:05:48;;;;;;;4.90;2.20;;;;;;;21.81;78.00;98959.39;109497;1253;59667;-73
2024/04/14 08:08:14;;;;;;;3.80;2.20;;;;;;;21.92;80.67;98957.58;109466;1253;59791;-74
2024/04/14 08:10:40;;;;;;;5.40;2.40;;;;;;;22.05;77.60;98960.50;109504;1252;59855;-74
2024/04/14 08:13:07;;;;;;;2.90;2.10;;;;;;;22.06;76.89;98967.54;109468;1254;59860;-73
2024/04/14 08:15:33;;;;;;;3.20;2.50;;;;;;;22.05;75.14;98969.45;109473;1253;59804;-74
2024/04/14 08:18:00;;;;;;;4.00;2.10;;;;;;;22.08;76.10;98970.02;109500;1254;59858;-74
2024/04/14 08:20:26;;;;;;;2.20;2.10;;;;;;;22.14;76.28;98966.23;109497;1253;59811;-74
2024/04/14 08:22:52;;;;;;;3.50;2.80;;;;;;;22.25;75.35;98962.65;109465;1253;59836;-74
2024/04/14 08:25:19;;;;;;;4.10;2.90;;;;;;;22.35;74.78;98963.70;109461;1253;60096;-73
2024/04/14 08:27:46;;;;;;;3.80;2.30;;;;;;;22.46;75.19;98958.80;109355;1252;152758;-73
2024/04/14 08:30:12;;;;;;;6.90;2.50;;;;;;;22.61;75.48;98960.43;109486;1252;59901;-72
2024/04/14 08:32:38;;;;;;;2.30;2.00;;;;;;;22.73;72.75;98960.90;109528;1253;59979;-72
2024/04/14 08:35:05;;;;;;;5.70;2.60;;;;;;;22.76;71.31;98962.29;109307;1252;60090;-73
2024/04/14 08:37:32;;;;;;;2.30;2.10;;;;;;;22.83;72.69;98965.66;109516;1253;59894;-73
2024/04/14 08:39:58;;;;;;;3.80;2.30;;;;;;;22.97;71.84;98962.08;109490;1253;59928;-74
2024/04/14 08:42:24;;;;;;;3.50;2.10;;;;;;;23.02;70.06;98961.98;109491;1252;59744;-74
2024/04/14 08:44:52;;;;;;;2.30;1.90;;;;;;;23.07;69.72;98958.84;109495;1254;60020;-73
2024/04/14 08:47:20;;;;;;;4.30;2.30;;;;;;;23.15;70.25;98954.98;109499;1253;60209;-74
2024/04/14 08:49:49;;;;;;;4.40;2.60;;;;;;;23.23;69.02;98950.77;109493;1253;62985;-74
2024/04/14 08:52:15;;;;;;;7.00;2.40;;;;;;;23.25;68.49;98947.59;109436;1254;59851;-74
2024/04/14 08:54:42;;;;;;;2.30;1.90;;;;;;;23.36;69.37;98946.54;109483;1253;59960;-74
2024/04/14 08:57:10;;;;;;;5.00;2.20;;;;;;;23.52;69.29;98945.47;109514;1253;65349;-74
2024/04/14 08:59:41;;;;;;;4.70;2.40;;;;;;;23.69;69.00;98945.27;109273;1254;60126;-73
2024/04/14 09:02:10;;;;;;;5.20;2.20;;;;;;;23.76;65.72;98943.97;109486;1253;63936;-73
2024/04/14 09:04:39;;;;;;;3.30;2.10;;;;;;;23.75;64.92;98941.19;109493;1252;59851;-74
2024/04/14 09:07:06;;;;;;;5.10;2.30;;;;;;;23.86;65.02;98940.74;109487;1253;59889;-74
2024/04/14 09:09:32;;;;;;;4.80;2.40;;;;;;;23.94;63.05;98941.35;109465;1252;75605;-75
2024/04/14 09:12:00;;;;;;;5.90;3.10;;;;;;;23.96;62.11;98939.56;109509;1253;59876;-74
2024/04/14 09:14:26;;;;;;;7.00;2.50;;;;;;;24.07;64.51;98938.30;109451;1252;73762;-74
2024/04/14 09:16:53;;;;;;;5.10;2.40;;;;;;;24.27;64.16;98941.25;109311;1254;60017;-73
2024/04/14 09:19:19;;;;;;;4.30;2.00;;;;;;;24.37;63.21;98939.27;109521;1253;59863;-75
2024/04/14 09:21:46;;;;;;;2.20;2.00;;;;;;;24.44;63.21;98942.99;109514;1254;59887;-73
2024/04/14 09:24:13;;;;;;;2.80;2.60;;;;;;;24.46;61.67;98944.61;109526;1253;59736;-73
2024/04/14 09:26:39;;;;;;;7.00;2.70;;;;;;;24.40;60.61;98943.84;109454;1253;62492;-74
2024/04/14 09:29:07;;;;;;;3.50;2.20;;;;;;;24.45;61.63;98942.34;109509;1253;60140;-73
2024/04/14 09:31:35;;;;;;;3.10;2.20;;;;;;;24.49;60.26;98942.94;109473;1254;59762;-73
2024/04/14 09:34:06;;;;;;;4.40;2.20;;;;;;;24.58;61.59;98940.21;109498;1253;67003;-73
2024/04/14 09:36:34;;;;;;;4.10;2.10;;;;;;;24.70;60.97;98944.19;109507;1254;59974;-73
2024/04/14 09:39:03;;;;;;;5.00;2.30;;;;;;;24.79;60.90;98942.56;109479;1254;62654;-73
2024/04/14 09:41:31;;;;;;;3.10;2.00;;;;;;;24.87;60.60;98948.27;109467;1253;60276;-73
2024/04/14 09:43:58;;;;;;;5.50;2.60;;;;;;;24.82;58.60;98948.13;109533;1254;59832;-73
2024/04/14 09:46:25;;;;;;;6.80;2.20;;;;;;;24.65;57.30;98952.73;109499;1253;67790;-74
2024/04/14 09:48:53;;;;;;;2.80;2.20;;;;;;;24.57;58.45;98951.38;109516;1253;60160;-75
2024/04/14 09:51:21;;;;;;;2.70;2.00;;;;;;;24.63;59.25;98950.59;109473;1254;64031;-73
2024/04/14 09:53:49;;;;;;;3.10;1.80;;;;;;;24.74;58.95;98946.70;109472;1253;59753;-74
2024/04/14 09:56:16;;;;;;;2.20;1.70;;;;;;;24.85;59.75;98944.34;109472;1254;59807;-73
2024/04/14 09:58:42;;;;;;;3.00;2.20;;;;;;;25.01;59.11;98942.71;109464;1254;66900;-73
2024/04/14 10:01:15;;;;;;;2.90;2.20;;;;;;;25.07;59.22;98942.59;109509;1253;59776;-73
2024/04/14 10:03:44;;;;;;;2.80;1.80;;;;;;;25.21;59.76;98943.98;109448;1254;62996;-73
2024/04/14 10:06:11;;;;;;;;;;;;;;;25.29;59.17;98937.59;109488;1253;59989;-75
2024/04/14 10:08:38;;;;;;;1.90;1.80;;;;;;;25.26;58.83;98934.34;109492;1253;59760;-74
2024/04/14 10:11:04;;;;;;;3.50;2.20;;;;;;;25.22;58.91;98927.85;109432;1254;59894;-76
2024/04/14 10:13:51;;;;;;;2.70;2.50;;;;;;;25.13;57.85;98933.98;109471;1253;68959;-74
2024/04/14 10:16:19;;;;;;;3.00;2.50;;;;;;;25.09;58.49;98933.27;109466;1254;64080;-75
2024/04/14 10:18:47;;;;;;;4.50;2.20;;;;;;;25.12;58.86;98929.97;109451;1254;59928;-74
2024/04/14 10:21:17;;;;;;;5.30;2.40;;;;;;;25.13;58.29;98923.48;109483;1254;59736;-74
2024/04/14 10:23:55;;;;;;;3.90;2.10;;;;;;;25.07;58.85;98924.10;109476;1254;66932;-73
2024/04/14 10:26:21;;;;;;;3.80;2.40;;;;;;;25.05;59.33;98926.56;109511;1254;61437;-74
2024/04/14 10:29:06;;;;;;;8.80;3.00;;;;;;;25.07;58.86;98921.12;109523;1254;59883;-74
2024/04/14 10:31:34;;;;;;;4.50;2.70;;;;;;;25.18;59.17;98924.73;109487;1252;59805;-73
2024/04/14 10:34:07;;;;;;;3.90;2.10;;;;;;;25.30;59.14;98920.81;109202;1252;60044;-73
2024/04/14 10:36:35;;;;;;;5.80;2.20;;;;;;;25.46;59.64;98922.21;109499;1252;66941;-74
2024/04/14 10:39:04;;;;;;;2.70;2.30;;;;;;;25.56;58.42;98921.06;109538;1253;59867;-73
2024/04/14 10:41:30;;;;;;;3.30;2.30;;;;;;;25.50;56.63;98920.98;109511;1254;63879;-73
2024/04/14 10:43:57;;;;;;;4.40;2.40;;;;;;;25.43;56.30;98921.02;109497;1254;59812;-75
2024/04/14 10:46:23;;;;;;;4.50;2.40;;;;;;;25.37;55.90;98917.84;109451;1254;60095;-73
2024/04/14 10:48:50;;;;;;;4.40;2.40;;;;;;;25.36;57.25;98913.98;109492;1254;59819;-76
2024/04/14 10:51:16;;;;;;;4.80;2.40;;;;;;;25.44;57.24;98917.64;109469;1256;60040;-73
2024/04/14 10:53:42;;;;;;;4.80;2.60;;;;;;;25.46;56.49;98922.02;109431;1253;59829;-73
2024/04/14 10:56:09;;;;;;;4.30;2.60;;;;;;;25.36;56.17;98917.95;109456;1254;59918;-74
2024/04/14 10:58:37;;;;;;;2.60;2.40;;;;;;;25.34;57.11;98917.10;109490;1253;59875;-75
2024/04/14 11:01:03;;;;;;;4.70;2.40;;;;;;;25.45;57.64;98908.98;109501;1253;68317;-73
2024/04/14 11:03:30;;;;;;;3.60;2.60;;;;;;;25.48;57.38;98904.13;109509;1252;59996;-77
2024/04/14 11:05:57;;;;;;;3.80;2.50;;;;;;;25.41;57.68;98900.27;109494;1253;64125;-75
2024/04/14 11:08:25;;;;;;;2.90;2.70;;;;;;;25.29;57.80;98906.57;109479;1252;59764;-76
2024/04/14 11:10:52;;;;;;;2.60;2.40;;;;;;;25.13;57.29;98905.81;109507;1254;59813;-76